createdAt,value
2023-03-16T00:01:57.539Z,504.00
2023-03-16T00:05:57.636Z,502.00
2023-03-16T00:09:57.828Z,505.00
2023-03-16T00:13:57.946Z,506.00
2023-03-16T00:17:58.146Z,504.00
2023-03-16T00:21:58.317Z,507.00
2023-03-16T00:25:58.547Z,506.00
2023-03-16T00:29:58.672Z,505.00
2023-03-16T00:33:58.868Z,505.00
2023-03-16T00:37:59.026Z,505.00
2023-03-16T00:41:59.219Z,507.00
2023-03-16T00:45:59.430Z,502.00
2023-03-16T00:49:59.618Z,505.00
2023-03-16T00:53:59.835Z,507.00
2023-03-16T00:58:00.086Z,500.00
2023-03-16T01:02:00.189Z,504.00
2023-03-16T01:06:00.410Z,505.00
2023-03-16T01:10:00.592Z,504.00
2023-03-16T01:14:00.769Z,505.00
2023-03-16T01:18:01.005Z,505.00
2023-03-16T01:22:01.181Z,504.00
2023-03-16T01:26:01.360Z,502.00
2023-03-16T01:30:01.596Z,506.00
2023-03-16T01:34:01.828Z,507.00
2023-03-16T01:38:02.001Z,508.00
2023-03-16T01:42:02.217Z,501.00
2023-03-16T01:46:02.548Z,506.00
2023-03-16T01:50:02.655Z,503.00
2023-03-16T01:54:02.835Z,507.00
2023-03-16T01:58:03.078Z,502.00
2023-03-16T02:02:03.309Z,501.00
2023-03-16T02:06:03.485Z,504.00
2023-03-16T02:10:03.459Z,503.00
2023-03-16T02:14:03.441Z,503.00
2023-03-16T02:18:03.419Z,505.00
2023-03-16T02:22:03.338Z,504.00
2023-03-16T02:26:03.348Z,510.00
2023-03-16T02:30:03.273Z,505.00
2023-03-16T02:34:03.250Z,503.00
2023-03-16T02:38:03.314Z,502.00
2023-03-16T02:42:03.200Z,508.00
2023-03-16T02:46:03.211Z,511.00
2023-03-16T02:50:03.394Z,505.00
2023-03-16T02:54:03.801Z,510.00
2023-03-16T02:58:03.332Z,504.00
2023-03-16T03:02:03.321Z,504.00
2023-03-16T03:06:03.257Z,504.00
2023-03-16T03:10:03.216Z,504.00
2023-03-16T03:14:03.229Z,503.00
2023-03-16T03:18:03.125Z,503.00
2023-03-16T03:22:03.113Z,505.00
2023-03-16T03:26:03.285Z,502.00
2023-03-16T03:30:03.253Z,509.00
2023-03-16T03:34:03.186Z,506.00
2023-03-16T03:38:03.120Z,501.00
2023-03-16T03:42:03.085Z,504.00
2023-03-16T03:46:03.325Z,500.00
2023-03-16T03:50:03.028Z,504.00
2023-03-16T03:54:02.994Z,505.00
2023-03-16T03:58:02.956Z,506.00
2023-03-16T04:02:03.046Z,507.00
2023-03-16T04:06:02.894Z,503.00
2023-03-16T04:10:02.836Z,501.00
2023-03-16T04:14:02.854Z,506.00
2023-03-16T04:18:02.796Z,506.00
2023-03-16T04:22:02.771Z,505.00
2023-03-16T04:26:02.729Z,504.00
2023-03-16T04:30:02.720Z,506.00
2023-03-16T04:34:02.660Z,502.00
2023-03-16T04:38:02.607Z,503.00
2023-03-16T04:42:02.560Z,510.00
2023-03-16T04:46:02.868Z,505.00
2023-03-16T04:50:02.871Z,503.00
2023-03-16T04:54:02.800Z,509.00
2023-03-16T04:58:02.760Z,503.00
2023-03-16T05:02:02.735Z,503.00
2023-03-16T05:06:02.774Z,504.00
2023-03-16T05:10:02.638Z,504.00
2023-03-16T05:14:02.581Z,508.00
2023-03-16T05:18:02.581Z,501.00
2023-03-16T05:22:02.558Z,501.00
2023-03-16T05:26:02.503Z,507.00
2023-03-16T05:30:02.501Z,508.00
2023-03-16T05:34:02.535Z,506.00
2023-03-16T05:38:02.480Z,503.00
2023-03-16T05:42:02.440Z,507.00
2023-03-16T05:46:02.420Z,505.00
2023-03-16T05:50:02.365Z,503.00
2023-03-16T05:54:02.318Z,506.00
2023-03-16T05:58:03.807Z,509.00
2023-03-16T06:02:02.283Z,507.00
2023-03-16T06:06:02.232Z,511.00
2023-03-16T06:10:02.205Z,505.00
2023-03-16T06:14:02.122Z,505.00
2023-03-16T06:18:02.147Z,507.00
2023-03-16T06:22:02.106Z,507.00
2023-03-16T06:26:02.069Z,510.00
2023-03-16T06:30:02.039Z,509.00
2023-03-16T06:34:01.991Z,501.00
2023-03-16T06:38:01.986Z,506.00
2023-03-16T06:42:01.925Z,509.00
2023-03-16T06:46:01.945Z,505.00
2023-03-16T06:50:01.909Z,507.00
2023-03-16T06:54:01.823Z,505.00
2023-03-16T06:58:01.798Z,507.00
2023-03-16T07:02:01.740Z,508.00
2023-03-16T07:06:01.700Z,510.00
2023-03-16T07:10:01.704Z,507.00
2023-03-16T07:14:01.613Z,509.00
2023-03-16T07:18:01.581Z,509.00
2023-03-16T07:22:01.569Z,510.00
2023-03-16T07:26:01.537Z,509.00
2023-03-16T07:30:01.522Z,520.00
2023-03-16T07:34:01.443Z,557.00
2023-03-16T07:38:01.432Z,828.00
2023-03-16T07:42:01.700Z,1161.00
2023-03-16T07:46:01.816Z,1335.00
2023-03-16T07:50:01.912Z,1372.00
2023-03-16T07:54:02.019Z,1336.00
2023-03-16T07:58:02.149Z,1249.00
2023-03-16T08:02:02.321Z,1069.00
2023-03-16T08:06:02.269Z,834.00
2023-03-16T08:10:02.402Z,615.00
2023-03-16T08:14:02.635Z,541.00
2023-03-16T08:18:02.663Z,500.00
2023-03-16T08:22:02.806Z,500.00
2023-03-16T08:26:02.865Z,503.00
2023-03-16T08:30:03.020Z,501.00
2023-03-16T08:34:03.189Z,504.00
2023-03-16T08:38:03.178Z,505.00
2023-03-16T08:42:03.294Z,504.00
2023-03-16T08:46:03.518Z,509.00
2023-03-16T08:50:03.524Z,508.00
2023-03-16T08:54:03.442Z,509.00
2023-03-16T08:58:03.429Z,514.00
2023-03-16T09:02:03.431Z,515.00
2023-03-16T09:06:03.309Z,514.00
2023-03-16T09:10:03.274Z,509.00
2023-03-16T09:14:03.238Z,515.00
2023-03-16T09:18:03.200Z,520.00
2023-03-16T09:22:03.157Z,514.00
2023-03-16T09:26:03.182Z,516.00
2023-03-16T09:30:03.111Z,510.00
2023-03-16T09:34:03.123Z,509.00
2023-03-16T09:38:06.010Z,508.00
2023-03-16T09:42:03.226Z,516.00
2023-03-16T09:46:03.245Z,510.00
2023-03-16T09:50:03.146Z,511.00
2023-03-16T09:54:03.067Z,517.00
2023-03-16T09:58:03.089Z,511.00
2023-03-16T10:02:03.032Z,509.00
2023-03-16T10:06:03.017Z,517.00
2023-03-16T10:10:02.978Z,513.00
2023-03-16T10:14:02.970Z,514.00
2023-03-16T10:18:02.908Z,517.00
2023-03-16T10:22:02.863Z,512.00
2023-03-16T10:26:02.856Z,503.00
2023-03-16T10:30:02.795Z,503.00
2023-03-16T10:34:02.749Z,511.00
2023-03-16T10:38:02.742Z,501.00
2023-03-16T10:42:02.676Z,513.00
2023-03-16T10:46:02.893Z,501.00
2023-03-16T10:50:02.696Z,516.00
2023-03-16T10:54:02.592Z,509.00
2023-03-16T10:58:02.538Z,516.00
2023-03-16T11:02:02.538Z,507.00
2023-03-16T11:06:02.653Z,521.00
2023-03-16T11:10:02.469Z,513.00
2023-03-16T11:14:02.516Z,510.00
2023-03-16T11:18:02.517Z,515.00
2023-03-16T11:22:02.585Z,510.00
2023-03-16T11:26:02.529Z,512.00
2023-03-16T11:30:02.296Z,502.00
2023-03-16T11:34:02.522Z,514.00
2023-03-16T11:38:02.570Z,503.00
2023-03-16T11:42:02.549Z,511.00
2023-03-16T11:46:02.633Z,504.00
2023-03-16T11:50:02.153Z,516.00
2023-03-16T11:54:02.562Z,508.00
2023-03-16T11:58:02.078Z,511.00
2023-03-16T12:02:02.030Z,509.00
2023-03-16T12:06:05.719Z,510.00
2023-03-16T12:10:02.958Z,505.00
2023-03-16T12:14:02.071Z,504.00
2023-03-16T12:18:02.027Z,508.00
2023-03-16T12:22:01.863Z,504.00
2023-03-16T12:26:01.957Z,508.00
2023-03-16T12:30:02.051Z,508.00
2023-03-16T12:34:02.176Z,509.00
2023-03-16T12:38:02.563Z,507.00
2023-03-16T12:42:02.608Z,505.00
2023-03-16T12:46:02.634Z,503.00
2023-03-16T12:50:02.773Z,507.00
2023-03-16T12:54:03.077Z,506.00
2023-03-16T12:58:03.558Z,508.00
2023-03-16T13:02:03.609Z,504.00
2023-03-16T13:06:03.435Z,506.00
2023-03-16T13:10:03.667Z,502.00
2023-03-16T13:14:04.098Z,500.00
2023-03-16T13:18:04.576Z,504.00
2023-03-16T13:22:04.076Z,503.00
2023-03-16T13:26:04.572Z,501.00
2023-03-16T13:30:04.110Z,503.00
2023-03-16T13:34:03.911Z,503.00
2023-03-16T13:38:03.904Z,503.00
2023-03-16T13:42:03.882Z,505.00
2023-03-16T13:46:03.867Z,501.00
2023-03-16T13:50:03.797Z,503.00
2023-03-16T13:54:04.106Z,503.00
2023-03-16T13:58:03.980Z,503.00
2023-03-16T14:02:11.206Z,505.00
2023-03-16T14:06:04.109Z,502.00
2023-03-16T14:10:04.036Z,500.00
2023-03-16T14:14:04.165Z,506.00
2023-03-16T14:18:03.924Z,504.00
2023-03-16T14:22:04.131Z,503.00
2023-03-16T14:26:04.141Z,504.00
2023-03-16T14:30:03.870Z,505.00
2023-03-16T14:34:04.145Z,501.00
2023-03-16T14:38:03.773Z,503.00
2023-03-16T14:42:04.143Z,503.00
2023-03-16T14:46:03.746Z,505.00
2023-03-16T14:50:04.133Z,506.00
2023-03-16T14:54:03.642Z,505.00
2023-03-16T14:58:03.608Z,504.00
2023-03-16T15:02:03.714Z,503.00
2023-03-16T15:06:03.547Z,508.00
2023-03-16T15:10:03.677Z,504.00
2023-03-16T15:14:03.575Z,500.00
2023-03-16T15:18:04.138Z,505.00
2023-03-16T15:22:03.753Z,506.00
2023-03-16T15:26:04.191Z,506.00
2023-03-16T15:30:04.150Z,504.00
2023-03-16T15:34:03.976Z,501.00
2023-03-16T15:38:04.150Z,505.00
2023-03-16T15:42:04.094Z,504.00
2023-03-16T15:46:04.681Z,502.00
2023-03-16T15:50:04.697Z,501.00
2023-03-16T15:54:04.254Z,509.00
2023-03-16T15:58:04.692Z,506.00
2023-03-16T16:02:04.647Z,506.00
2023-03-16T16:06:04.493Z,501.00
2023-03-16T16:10:04.681Z,501.00
2023-03-16T16:14:04.677Z,506.00
2023-03-16T16:18:21.816Z,506.00
2023-03-16T16:22:06.189Z,507.00
2023-03-16T16:26:05.186Z,504.00
2023-03-16T16:30:04.925Z,505.00
2023-03-16T16:34:05.153Z,503.00
2023-03-16T16:38:05.177Z,507.00
2023-03-16T16:42:05.662Z,506.00
2023-03-16T16:46:05.477Z,511.00
2023-03-16T16:50:05.579Z,505.00
2023-03-16T16:54:05.700Z,504.00
2023-03-16T16:58:12.357Z,508.00
2023-03-16T17:02:06.852Z,506.00
2023-03-16T17:06:05.930Z,502.00
2023-03-16T17:10:06.051Z,505.00
2023-03-16T17:14:06.700Z,503.00
2023-03-16T17:18:06.699Z,509.00
2023-03-16T17:22:06.696Z,505.00
2023-03-16T17:26:06.754Z,506.00
2023-03-16T17:30:06.942Z,504.00
2023-03-16T17:34:07.215Z,505.00
2023-03-16T17:38:07.682Z,508.00
2023-03-16T17:42:07.446Z,505.00
2023-03-16T17:46:07.642Z,509.00
2023-03-16T17:50:08.183Z,509.00
2023-03-16T17:54:08.023Z,506.00
2023-03-16T17:58:08.214Z,505.00
2023-03-16T18:02:08.757Z,505.00
2023-03-16T18:06:08.496Z,504.00
2023-03-16T18:10:08.741Z,507.00
2023-03-16T18:14:08.871Z,504.00
2023-03-16T18:18:09.213Z,506.00
2023-03-16T18:22:09.254Z,508.00
2023-03-16T18:26:09.456Z,502.00
2023-03-16T18:30:09.740Z,501.00
2023-03-16T18:34:10.250Z,503.00
2023-03-16T18:38:10.198Z,509.00
2023-03-16T18:42:10.250Z,506.00
2023-03-16T18:46:10.424Z,507.00
2023-03-16T18:50:10.664Z,502.00
2023-03-16T18:54:11.262Z,504.00
2023-03-16T18:58:11.755Z,502.00
2023-03-16T19:02:11.216Z,503.00
2023-03-16T19:06:11.244Z,500.00
2023-03-16T19:10:10.976Z,501.00
2023-03-16T19:14:11.222Z,503.00
2023-03-16T19:18:12.816Z,510.00
2023-03-16T19:22:10.879Z,511.00
2023-03-16T19:26:11.222Z,517.00
2023-03-16T19:30:11.222Z,585.00
2023-03-16T19:34:10.837Z,809.00
2023-03-16T19:38:11.230Z,829.00
2023-03-16T19:42:11.454Z,1080.00
2023-03-16T19:46:10.759Z,1124.00
2023-03-16T19:50:10.746Z,1475.00
2023-03-16T19:54:10.760Z,1410.00
2023-03-16T19:58:10.615Z,1377.00
2023-03-16T20:02:10.585Z,1320.00
2023-03-16T20:06:10.572Z,1304.00
2023-03-16T20:10:10.803Z,1294.00
2023-03-16T20:14:10.483Z,1258.00
2023-03-16T20:18:10.432Z,1216.00
2023-03-16T20:22:10.753Z,1159.00
2023-03-16T20:26:10.800Z,1114.00
2023-03-16T20:30:10.333Z,1083.00
2023-03-16T20:34:10.752Z,1055.00
2023-03-16T20:38:10.252Z,1018.00
2023-03-16T20:42:10.266Z,1018.00
2023-03-16T20:46:10.824Z,1036.00
2023-03-16T20:50:10.469Z,937.00
2023-03-16T20:54:10.783Z,896.00
2023-03-16T20:58:10.443Z,854.00
2023-03-16T21:02:10.460Z,838.00
2023-03-16T21:06:10.761Z,816.00
2023-03-16T21:10:10.545Z,797.00
2023-03-16T21:14:10.514Z,788.00
2023-03-16T21:18:10.540Z,755.00
2023-03-16T21:22:10.589Z,744.00
2023-03-16T21:26:10.607Z,739.00
2023-03-16T21:30:10.734Z,717.00
2023-03-16T21:34:10.798Z,697.00
2023-03-16T21:38:10.883Z,678.00
2023-03-16T21:42:10.964Z,664.00
2023-03-16T21:46:11.105Z,662.00
2023-03-16T21:50:11.066Z,654.00
2023-03-16T21:54:11.133Z,648.00
2023-03-16T21:58:11.246Z,643.00
2023-03-16T22:02:11.415Z,640.00
2023-03-16T22:06:13.474Z,633.00
2023-03-16T22:10:11.456Z,625.00
2023-03-16T22:14:11.554Z,623.00
2023-03-16T22:18:11.613Z,619.00
2023-03-16T22:22:11.697Z,612.00
2023-03-16T22:26:11.766Z,613.00
2023-03-16T22:30:11.860Z,607.00
2023-03-16T22:34:11.974Z,603.00
2023-03-16T22:38:12.111Z,598.00
2023-03-16T22:42:12.177Z,597.00
2023-03-16T22:46:12.345Z,596.00
2023-03-16T22:50:12.400Z,590.00
2023-03-16T22:54:12.545Z,586.00
2023-03-16T22:58:12.676Z,581.00
2023-03-16T23:02:12.774Z,577.00
2023-03-16T23:06:13.336Z,581.00
2023-03-16T23:10:13.018Z,575.00
2023-03-16T23:14:13.184Z,573.00
2023-03-16T23:18:13.317Z,570.00
2023-03-16T23:22:13.439Z,569.00
2023-03-16T23:26:13.521Z,563.00
2023-03-16T23:30:13.634Z,560.00
2023-03-16T23:34:13.766Z,560.00
2023-03-16T23:38:13.924Z,557.00
2023-03-16T23:42:14.330Z,552.00
2023-03-16T23:46:14.267Z,554.00
2023-03-16T23:50:14.294Z,553.00
2023-03-16T23:54:14.447Z,550.00
2023-03-16T23:58:14.634Z,545.00
